Time;durP1;ratioP1;P1;durP2;ratioP2;P2;SDS_P1;SDS_P2;PMS_P1;PMS_P2;Temp;Humidity;BMP_temperature;BMP_pressure;BME280_temperature;BME280_humidity;BME280_pressure;Samples;Min_cycle;Max_cycle;Signal;HPM_P1;HPM_P2
2023/05/23 00:00:26;;;;;;;25.90;12.68;;;13.30;99.90;;;;;;5114928;28;20035;-61
2023/05/23 00:02:51;;;;;;;24.98;12.13;;;13.30;99.90;;;;;;5115754;28;20040;-61
2023/05/23 00:05:17;;;;;;;23.65;11.55;;;13.20;99.90;;;;;;5113117;28;20084;-61
2023/05/23 00:07:46;;;;;;;20.85;11.23;;;13.20;99.90;;;;;;5114111;28;20040;-62
2023/05/23 00:10:12;;;;;;;25.92;11.52;;;13.30;99.90;;;;;;5113748;28;20063;-62
2023/05/23 00:12:41;;;;;;;25.75;11.27;;;13.20;99.90;;;;;;5112913;28;20052;-62
2023/05/23 00:15:08;;;;;;;21.80;10.63;;;13.20;99.90;;;;;;5113363;28;20035;-63
2023/05/23 00:17:36;;;;;;;25.90;10.40;;;13.20;99.90;;;;;;5113845;28;20050;-62
2023/05/23 00:20:03;;;;;;;24.83;10.77;;;13.20;99.90;;;;;;5113113;28;20047;-61
2023/05/23 00:22:29;;;;;;;20.25;10.57;;;13.20;99.90;;;;;;5114547;28;20044;-61
2023/05/23 00:24:56;;;;;;;21.35;10.85;;;13.10;99.90;;;;;;5115238;28;20047;-62
2023/05/23 00:27:22;;;;;;;23.65;10.82;;;13.10;99.90;;;;;;5095358;28;20051;-62
2023/05/23 00:29:48;;;;;;;23.42;11.25;;;13.10;99.90;;;;;;5114947;28;20043;-61
2023/05/23 00:32:14;;;;;;;22.85;9.73;;;13.00;99.90;;;;;;5114539;28;20081;-62
2023/05/23 00:34:39;;;;;;;24.40;9.27;;;12.90;99.90;;;;;;5113687;28;20039;-61
2023/05/23 00:37:05;;;;;;;19.52;9.75;;;13.00;99.90;;;;;;5114816;28;20075;-62
2023/05/23 00:39:31;;;;;;;18.42;10.35;;;12.90;99.90;;;;;;5114021;28;20032;-63
2023/05/23 00:41:57;;;;;;;28.90;11.02;;;12.90;99.90;;;;;;5093259;28;20040;-63
2023/05/23 00:44:22;;;;;;;21.85;10.88;;;12.90;99.90;;;;;;5093597;28;20059;-63
2023/05/23 00:46:55;;;;;;;18.67;9.70;;;12.90;99.90;;;;;;5093808;28;20036;-62
2023/05/23 00:49:21;;;;;;;27.17;10.88;;;12.80;99.90;;;;;;5093803;28;20032;-62
2023/05/23 00:51:50;;;;;;;24.38;11.57;;;12.80;99.90;;;;;;5092770;28;20374;-62
2023/05/23 00:54:24;;;;;;;28.90;12.32;;;12.80;99.90;;;;;;5093102;28;20106;-62
2023/05/23 00:56:50;;;;;;;30.35;11.63;;;12.70;99.90;;;;;;5094069;28;20048;-62
2023/05/23 00:59:16;;;;;;;25.42;11.48;;;12.70;99.90;;;;;;5094025;28;20157;-62
2023/05/23 01:01:45;;;;;;;21.75;10.85;;;12.70;99.90;;;;;;5091768;28;20048;-61
2023/05/23 01:04:12;;;;;;;20.15;10.60;;;12.70;99.90;;;;;;5093616;28;20036;-62
2023/05/23 01:06:38;;;;;;;24.17;11.55;;;12.70;99.90;;;;;;5092211;28;20054;-62
2023/05/23 01:09:05;;;;;;;27.70;13.20;;;12.60;99.90;;;;;;5093041;28;20044;-62
2023/05/23 01:11:51;;;;;;;22.90;10.70;;;12.70;99.90;;;;;;5093260;28;20119;-63
2023/05/23 01:14:31;;;;;;;23.58;12.40;;;12.70;99.90;;;;;;5092369;28;20039;-63
2023/05/23 01:17:04;;;;;;;27.77;12.32;;;12.60;99.90;;;;;;5092830;28;20046;-61
2023/05/23 01:20:00;;;;;;;25.73;11.20;;;12.60;99.90;;;;;;5075314;28;20040;-61
2023/05/23 01:22:52;;;;;;;;;;;12.60;99.90;;;;;;5091583;28;20052;-62
2023/05/23 01:25:46;;;;;;;18.52;9.77;;;12.50;99.90;;;;;;5091081;28;19916;-61
2023/05/23 01:28:19;;;;;;;22.75;10.88;;;12.60;99.90;;;;;;5093207;28;20079;-62
2023/05/23 01:30:47;;;;;;;24.63;9.93;;;12.50;99.90;;;;;;5091623;28;20428;-61
2023/05/23 01:33:16;;;;;;;25.42;10.38;;;12.60;99.90;;;;;;5091606;28;20055;-62
2023/05/23 01:35:42;;;;;;;20.77;10.60;;;12.60;99.90;;;;;;5092995;28;20040;-62
2023/05/23 01:38:08;;;;;;;18.25;10.35;;;12.50;99.90;;;;;;5074399;28;20059;-61
2023/05/23 01:40:35;;;;;;;20.30;9.70;;;12.60;99.90;;;;;;5092772;28;20039;-61
2023/05/23 01:43:01;;;;;;;20.80;9.65;;;12.50;99.90;;;;;;5092400;28;20060;-62
2023/05/23 01:45:28;;;;;;;25.98;9.40;;;12.50;99.90;;;;;;5092531;28;20040;-62
2023/05/23 01:47:55;;;;;;;21.48;9.85;;;12.50;99.90;;;;;;5093079;28;20044;-61
2023/05/23 01:50:22;;;;;;;23.52;8.68;;;12.50;99.90;;;;;;5073875;28;20056;-61
2023/05/23 01:52:48;;;;;;;21.50;8.27;;;12.50;99.90;;;;;;5091427;28;20044;-61
2023/05/23 01:55:21;;;;;;;22.17;8.80;;;12.50;99.90;;;;;;5092193;28;20036;-62
2023/05/23 01:57:50;;;;;;;17.70;7.53;;;12.50;99.90;;;;;;5092392;28;20036;-62
2023/05/23 02:00:16;;;;;;;21.20;8.23;;;12.50;99.90;;;;;;5091391;28;20042;-62
2023/05/23 02:02:42;;;;;;;15.38;7.78;;;12.50;99.90;;;;;;5093517;28;20047;-62
2023/05/23 02:05:09;;;;;;;18.33;8.50;;;12.50;99.90;;;;;;5092129;28;20040;-61
2023/05/23 02:07:35;;;;;;;18.77;8.38;;;12.50;99.90;;;;;;5091415;28;20453;-62
2023/05/23 02:10:03;;;;;;;27.60;9.82;;;12.50;99.90;;;;;;5091531;28;20083;-61
2023/05/23 02:12:28;;;;;;;20.55;8.18;;;12.50;99.90;;;;;;5090189;28;20044;-61
2023/05/23 02:14:54;;;;;;;19.98;8.20;;;12.60;99.90;;;;;;5105247;28;20042;-63
2023/05/23 02:17:21;;;;;;;19.45;8.35;;;12.60;99.90;;;;;;5112228;28;20369;-62
2023/05/23 02:19:47;;;;;;;21.17;9.23;;;12.60;99.90;;;;;;5112032;28;20526;-62
2023/05/23 02:22:13;;;;;;;23.90;9.73;;;12.60;99.90;;;;;;5111303;28;20457;-61
2023/05/23 02:24:39;;;;;;;21.23;8.35;;;12.50;99.90;;;;;;5111128;28;20114;-62
2023/05/23 02:27:05;;;;;;;20.00;8.85;;;12.50;99.90;;;;;;5093970;28;20047;-62
2023/05/23 02:29:31;;;;;;;19.52;8.25;;;12.50;99.90;;;;;;5111087;28;20075;-62
2023/05/23 02:31:57;;;;;;;17.13;8.27;;;12.40;99.90;;;;;;5111466;28;20465;-62
2023/05/23 02:34:22;;;;;;;20.73;8.82;;;12.40;99.90;;;;;;5109727;28;20388;-62
2023/05/23 02:36:48;;;;;;;28.65;9.68;;;12.40;99.90;;;;;;5112021;28;20043;-62
2023/05/23 02:39:13;;;;;;;18.35;8.18;;;12.40;99.90;;;;;;5110816;28;20047;-62
2023/05/23 02:41:39;;;;;;;20.23;9.63;;;12.40;99.90;;;;;;5112011;28;20043;-62
2023/05/23 02:44:05;;;;;;;18.67;7.72;;;12.40;99.90;;;;;;5112166;28;20114;-62
2023/05/23 02:46:31;;;;;;;14.27;7.82;;;12.40;99.90;;;;;;5111315;28;20047;-63
2023/05/23 02:48:56;;;;;;;19.60;6.97;;;12.40;99.90;;;;;;5111358;28;20050;-63
2023/05/23 02:51:22;;;;;;;18.95;6.40;;;12.30;99.90;;;;;;5111801;28;20078;-62
2023/05/23 02:53:48;;;;;;;22.48;7.55;;;12.30;99.90;;;;;;5110367;28;20036;-62
2023/05/23 02:56:14;;;;;;;16.48;5.72;;;12.30;99.90;;;;;;5112360;28;20114;-62
2023/05/23 02:58:40;;;;;;;23.08;7.13;;;12.30;99.90;;;;;;5112271;28;20047;-62
2023/05/23 03:01:07;;;;;;;17.58;5.82;;;12.30;99.90;;;;;;5110459;28;20089;-62
2023/05/23 03:03:33;;;;;;;21.05;6.55;;;12.30;99.90;;;;;;5111880;28;20035;-62
2023/05/23 03:05:59;;;;;;;15.38;5.85;;;12.30;99.90;;;;;;5093829;28;20044;-60
2023/05/23 03:08:25;;;;;;;15.52;5.32;;;12.30;99.90;;;;;;5093812;28;20477;-60
2023/05/23 03:10:51;;;;;;;12.85;5.57;;;12.30;99.90;;;;;;5096324;28;20032;-60
2023/05/23 03:13:17;;;;;;;17.35;7.00;;;12.30;99.90;;;;;;5095847;28;20040;-60
2023/05/23 03:15:43;;;;;;;22.17;7.13;;;12.30;99.90;;;;;;5093767;28;20070;-60
2023/05/23 03:18:10;;;;;;;16.73;5.68;;;12.30;99.90;;;;;;5094435;28;20043;-60
2023/05/23 03:20:35;;;;;;;18.02;5.70;;;12.30;99.90;;;;;;5095595;28;20051;-60
2023/05/23 03:23:01;;;;;;;17.20;6.28;;;12.30;99.90;;;;;;5095301;28;20044;-60
2023/05/23 03:25:26;;;;;;;12.85;5.07;;;12.20;99.90;;;;;;5095485;28;20039;-60
2023/05/23 03:27:52;;;;;;;16.05;6.10;;;12.20;99.90;;;;;;5095869;28;20052;-60
2023/05/23 03:30:18;;;;;;;14.23;6.43;;;12.20;99.90;;;;;;5093440;28;20048;-60
2023/05/23 03:32:44;;;;;;;17.13;6.97;;;12.20;99.90;;;;;;5093997;28;20404;-60
2023/05/23 03:35:10;;;;;;;14.00;6.78;;;12.20;99.90;;;;;;5106812;28;20115;-60
2023/05/23 03:37:36;;;;;;;17.25;6.95;;;12.20;99.90;;;;;;5114922;28;20036;-60
2023/05/23 03:40:02;;;;;;;12.77;6.50;;;12.10;99.90;;;;;;5116175;28;20370;-60
2023/05/23 03:42:28;;;;;;;15.38;5.38;;;12.10;99.90;;;;;;5114201;28;20096;-60
2023/05/23 03:44:54;;;;;;;15.43;6.70;;;12.10;99.90;;;;;;5113243;28;20058;-60
2023/05/23 03:47:20;;;;;;;18.13;6.82;;;12.10;99.90;;;;;;5115414;28;20031;-60
2023/05/23 03:49:45;;;;;;;18.92;5.78;;;12.10;99.90;;;;;;5105313;28;20044;-60
2023/05/23 03:52:11;;;;;;;19.33;5.05;;;12.10;99.90;;;;;;5105981;28;20040;-60
2023/05/23 03:54:37;;;;;;;13.55;5.40;;;12.10;99.90;;;;;;5099099;28;20028;-60
2023/05/23 03:57:02;;;;;;;15.68;5.30;;;12.10;99.90;;;;;;5093185;28;20043;-60
2023/05/23 03:59:28;;;;;;;16.05;5.82;;;12.10;99.90;;;;;;5076449;28;20102;-61
2023/05/23 04:01:57;;;;;;;22.05;7.07;;;12.10;99.90;;;;;;5095108;28;20080;-60
2023/05/23 04:04:23;;;;;;;22.23;6.05;;;12.10;99.90;;;;;;5091982;28;20040;-61
2023/05/23 04:06:50;;;;;;;18.92;5.85;;;12.00;99.90;;;;;;5098310;28;20070;-61
2023/05/23 04:09:16;;;;;;;17.10;6.03;;;12.00;99.90;;;;;;5094823;28;20051;-60
2023/05/23 04:11:42;;;;;;;13.55;5.18;;;12.00;99.90;;;;;;5093820;28;20044;-60
2023/05/23 04:14:08;;;;;;;12.25;5.60;;;11.90;99.90;;;;;;5095043;28;20032;-60
2023/05/23 04:16:34;;;;;;;12.68;4.95;;;11.80;99.90;;;;;;5102685;28;20038;-61
2023/05/23 04:19:04;;;;;;;13.73;6.45;;;11.70;99.90;;;;;;5113185;28;20043;-60
2023/05/23 04:21:30;;;;;;;19.35;6.82;;;11.70;99.90;;;;;;5113401;28;20084;-60
2023/05/23 04:23:55;;;;;;;20.33;10.55;;;11.60;99.90;;;;;;5113977;28;20048;-60
2023/05/23 04:26:21;;;;;;;22.83;10.88;;;11.70;99.90;;;;;;5113802;28;20104;-60
2023/05/23 04:28:47;;;;;;;22.60;10.50;;;11.60;99.90;;;;;;5113976;28;20038;-60
2023/05/23 04:31:13;;;;;;;16.58;9.23;;;11.60;99.90;;;;;;5114322;28;20047;-61
2023/05/23 04:33:42;;;;;;;13.93;7.80;;;11.60;99.90;;;;;;5113873;28;20491;-61
2023/05/23 04:36:08;;;;;;;12.57;5.75;;;11.60;99.90;;;;;;5115036;27;20048;-60
2023/05/23 04:38:37;;;;;;;13.20;5.80;;;11.50;99.90;;;;;;5114562;28;20067;-60
2023/05/23 04:41:04;;;;;;;11.25;5.57;;;11.50;99.90;;;;;;5114179;28;20043;-60
2023/05/23 04:43:32;;;;;;;12.40;5.57;;;11.50;99.90;;;;;;5112616;28;20091;-60
2023/05/23 04:45:58;;;;;;;16.17;5.93;;;11.50;99.90;;;;;;5112750;28;20126;-61
2023/05/23 04:48:26;;;;;;;14.38;6.18;;;11.40;99.90;;;;;;5113097;28;20384;-60
2023/05/23 04:50:51;;;;;;;17.50;5.80;;;11.50;99.90;;;;;;5113648;28;20039;-60
2023/05/23 04:53:18;;;;;;;15.10;5.95;;;11.40;99.90;;;;;;5113460;28;20377;-60
2023/05/23 04:55:43;;;;;;;16.40;6.03;;;11.40;99.90;;;;;;5100473;28;20081;-60
2023/05/23 04:58:09;;;;;;;13.20;5.85;;;11.40;99.90;;;;;;5093483;28;20028;-61
2023/05/23 05:00:34;;;;;;;17.75;5.38;;;11.40;99.90;;;;;;5091559;28;20043;-60
2023/05/23 05:03:00;;;;;;;12.68;5.10;;;11.30;99.90;;;;;;5094093;28;20305;-60
2023/05/23 05:05:26;;;;;;;19.50;7.82;;;11.30;99.90;;;;;;5092266;28;20044;-60
2023/05/23 05:07:52;;;;;;;14.65;6.47;;;11.30;99.90;;;;;;5093205;28;20046;-60
2023/05/23 05:10:18;;;;;;;26.52;9.65;;;11.30;99.90;;;;;;5093464;28;20404;-60
2023/05/23 05:12:45;;;;;;;26.13;9.77;;;11.30;99.90;;;;;;5092101;28;20051;-60
2023/05/23 05:15:12;;;;;;;15.95;6.90;;;11.30;99.90;;;;;;5092770;28;20036;-60
2023/05/23 05:17:38;;;;;;;16.75;5.82;;;11.30;99.90;;;;;;5092065;28;20481;-60
2023/05/23 05:20:07;;;;;;;12.80;4.53;;;11.40;99.90;;;;;;5092405;28;20044;-60
2023/05/23 05:22:39;;;;;;;13.80;5.38;;;11.30;99.90;;;;;;5090949;28;20043;-60
2023/05/23 05:25:06;;;;;;;13.95;4.43;;;11.30;99.90;;;;;;5093616;28;20044;-60
2023/05/23 05:27:32;;;;;;;12.27;4.22;;;11.30;99.90;;;;;;5092521;28;20043;-61
2023/05/23 05:30:03;;;;;;;12.90;5.28;;;11.30;99.90;;;;;;5090823;28;20080;-60
2023/05/23 05:32:32;;;;;;;11.75;5.07;;;11.30;99.90;;;;;;5092892;28;20087;-60
2023/05/23 05:35:02;;;;;;;13.52;4.28;;;11.20;99.90;;;;;;5092182;28;20040;-60
2023/05/23 05:37:27;;;;;;;14.75;4.88;;;11.20;99.90;;;;;;5091419;28;20098;-61
2023/05/23 05:39:56;;;;;;;14.35;4.50;;;11.20;99.90;;;;;;5093166;28;20491;-60
2023/05/23 05:42:22;;;;;;;18.58;5.22;;;11.10;99.90;;;;;;5092034;28;20040;-60
2023/05/23 05:44:48;;;;;;;17.45;4.93;;;11.10;99.90;;;;;;5091754;28;20139;-61
2023/05/23 05:47:14;;;;;;;15.20;6.43;;;11.10;99.90;;;;;;5091845;28;20477;-60
2023/05/23 05:49:40;;;;;;;25.75;10.75;;;11.10;99.90;;;;;;5092166;28;20048;-61
2023/05/23 05:52:07;;;;;;;19.08;5.72;;;11.10;99.90;;;;;;5093242;28;20039;-61
2023/05/23 05:54:33;;;;;;;16.70;5.57;;;11.10;99.90;;;;;;5091421;28;20036;-60
2023/05/23 05:56:59;;;;;;;11.93;4.00;;;11.20;99.90;;;;;;5092193;28;20396;-60
2023/05/23 05:59:25;;;;;;;13.80;4.22;;;11.20;99.90;;;;;;5092353;28;20122;-60
2023/05/23 06:01:51;;;;;;;18.50;5.30;;;11.30;99.90;;;;;;5092816;28;20079;-60
2023/05/23 06:04:17;;;;;;;12.90;4.93;;;11.40;99.90;;;;;;5090693;28;20039;-61
2023/05/23 06:06:43;;;;;;;15.00;5.95;;;11.50;99.90;;;;;;5092448;28;20032;-60
2023/05/23 06:09:09;;;;;;;18.67;5.00;;;11.50;99.90;;;;;;5092481;28;20115;-61
2023/05/23 06:11:38;;;;;;;19.50;5.18;;;11.60;99.90;;;;;;5090438;28;20113;-60
2023/05/23 06:14:05;;;;;;;16.13;4.78;;;11.70;99.90;;;;;;5092855;28;20393;-60
2023/05/23 06:16:31;;;;;;;15.07;4.70;;;11.70;99.90;;;;;;5073990;28;20071;-61
2023/05/23 06:18:56;;;;;;;17.45;5.00;;;11.70;99.90;;;;;;5094958;28;20039;-60
2023/05/23 06:21:22;;;;;;;14.35;5.38;;;11.80;99.90;;;;;;5093273;28;20040;-60
2023/05/23 06:23:48;;;;;;;11.52;4.65;;;11.80;99.90;;;;;;5112859;28;20039;-60
2023/05/23 06:26:13;;;;;;;16.25;4.15;;;11.80;99.90;;;;;;5111925;28;20044;-60
2023/05/23 06:28:39;;;;;;;14.05;3.88;;;11.80;99.90;;;;;;5111234;28;20146;-60
2023/05/23 06:31:05;;;;;;;14.15;4.25;;;11.90;99.90;;;;;;5111294;28;20106;-60
2023/05/23 06:33:31;;;;;;;13.13;4.13;;;11.90;99.90;;;;;;5098771;28;20032;-61
2023/05/23 06:35:57;;;;;;;18.00;4.95;;;11.90;99.90;;;;;;5111709;28;20114;-60
2023/05/23 06:38:25;;;;;;;16.92;5.93;;;11.90;99.90;;;;;;5090338;28;20067;-62
2023/05/23 06:40:51;;;;;;;12.50;3.58;;;11.80;99.90;;;;;;5099502;28;20040;-60
2023/05/23 06:43:16;;;;;;;20.63;5.43;;;11.80;99.90;;;;;;5104322;28;20105;-61
2023/05/23 06:45:46;;;;;;;12.82;4.10;;;11.80;99.90;;;;;;5094487;28;20047;-61
2023/05/23 06:48:12;;;;;;;12.13;4.13;;;11.80;99.90;;;;;;5111039;28;20048;-61
2023/05/23 06:50:38;;;;;;;19.85;5.47;;;11.80;99.90;;;;;;5096225;28;20136;-61
2023/05/23 06:53:03;;;;;;;16.15;5.28;;;11.90;99.90;;;;;;5107056;28;20036;-61
2023/05/23 06:55:29;;;;;;;15.52;4.65;;;11.80;99.90;;;;;;5087610;28;20040;-61
2023/05/23 06:57:55;;;;;;;16.13;4.68;;;11.90;99.90;;;;;;5090166;28;20567;-61
2023/05/23 07:00:20;;;;;;;17.80;4.45;;;11.90;99.90;;;;;;5087258;28;20129;-61
2023/05/23 07:02:47;;;;;;;16.17;4.20;;;11.90;99.90;;;;;;5088540;28;20138;-61
2023/05/23 07:05:14;;;;;;;12.57;4.40;;;11.90;99.90;;;;;;5089845;28;20061;-61
2023/05/23 07:07:41;;;;;;;19.48;4.68;;;11.90;99.90;;;;;;5092887;28;20120;-61
2023/05/23 07:10:08;;;;;;;23.27;7.03;;;11.90;99.90;;;;;;5109974;28;20039;-61
2023/05/23 07:12:34;;;;;;;18.40;5.70;;;11.90;99.90;;;;;;5097878;28;20122;-61
2023/05/23 07:14:59;;;;;;;8.10;3.30;;;11.90;99.90;;;;;;5101593;28;20044;-64
2023/05/23 07:17:26;;;;;;;14.02;3.60;;;12.00;99.90;;;;;;5108951;28;20411;-61
2023/05/23 07:19:51;;;;;;;12.75;3.90;;;12.00;99.90;;;;;;5091395;28;20051;-61
2023/05/23 07:22:17;;;;;;;15.68;4.18;;;12.00;99.90;;;;;;5107316;28;20047;-60
2023/05/23 07:24:43;;;;;;;17.00;4.20;;;12.10;99.90;;;;;;5102525;28;20408;-60
2023/05/23 07:27:08;;;;;;;13.68;4.80;;;12.10;99.90;;;;;;5097747;28;20459;-61
2023/05/23 07:29:34;;;;;;;14.43;4.72;;;12.30;99.90;;;;;;5107188;28;20085;-61
2023/05/23 07:31:59;;;;;;;16.10;4.53;;;12.40;99.90;;;;;;5108067;28;20048;-61
2023/05/23 07:34:25;;;;;;;17.80;4.55;;;12.40;99.90;;;;;;5090552;28;20464;-60
2023/05/23 07:36:52;;;;;;;17.38;4.40;;;12.40;99.90;;;;;;5107014;28;20101;-61
2023/05/23 07:39:21;;;;;;;22.08;6.05;;;12.40;99.90;;;;;;5107621;28;20038;-61
2023/05/23 07:41:47;;;;;;;14.68;5.05;;;12.50;99.90;;;;;;5106885;28;20043;-62
2023/05/23 07:44:13;;;;;;;14.93;5.10;;;12.50;99.90;;;;;;5087668;28;20160;-60
2023/05/23 07:46:39;;;;;;;15.77;4.88;;;12.50;99.90;;;;;;5087205;28;20131;-61
2023/05/23 07:49:05;;;;;;;14.05;4.30;;;12.50;99.90;;;;;;5100729;28;20089;-61
2023/05/23 07:51:31;;;;;;;13.43;3.75;;;12.50;99.90;;;;;;5107458;28;20078;-61
2023/05/23 07:53:57;;;;;;;17.63;4.53;;;12.50;99.90;;;;;;5111917;28;20094;-61
2023/05/23 07:56:22;;;;;;;19.63;4.60;;;12.60;99.90;;;;;;5112030;28;20031;-61
2023/05/23 07:58:48;;;;;;;20.80;5.10;;;12.70;99.90;;;;;;5111999;28;20040;-61
2023/05/23 08:01:14;;;;;;;20.52;4.97;;;12.70;99.90;;;;;;5092483;28;20082;-60
2023/05/23 08:03:40;;;;;;;15.95;4.70;;;12.70;99.90;;;;;;5112155;28;20054;-60
2023/05/23 08:06:06;;;;;;;13.35;5.28;;;12.70;99.90;;;;;;5112779;28;20043;-61
2023/05/23 08:08:32;;;;;;;13.85;5.32;;;12.70;99.90;;;;;;5106143;28;20047;-61
2023/05/23 08:10:58;;;;;;;15.60;4.25;;;12.60;99.90;;;;;;5101010;28;20126;-61
2023/05/23 08:13:23;;;;;;;17.92;5.38;;;12.70;99.90;;;;;;5110568;28;20142;-61
2023/05/23 08:15:49;;;;;;;13.32;3.90;;;12.70;99.90;;;;;;5097615;28;20063;-60
2023/05/23 08:18:15;;;;;;;16.02;4.45;;;12.80;99.90;;;;;;5090180;28;20131;-61
2023/05/23 08:20:42;;;;;;;27.98;6.05;;;12.90;99.90;;;;;;5090819;28;20101;-60
2023/05/23 08:23:07;;;;;;;14.30;4.55;;;13.00;99.90;;;;;;5091110;28;20052;-60
2023/05/23 08:25:33;;;;;;;14.57;4.30;;;13.20;99.90;;;;;;5089595;28;20052;-60
2023/05/23 08:28:00;;;;;;;20.52;4.47;;;13.30;99.90;;;;;;5096045;28;20067;-61
2023/05/23 08:30:27;;;;;;;14.20;3.70;;;13.40;99.90;;;;;;5098817;27;20044;-60
2023/05/23 08:32:54;;;;;;;22.67;4.85;;;13.30;99.90;;;;;;5089503;28;20082;-61
2023/05/23 08:35:21;;;;;;;15.80;4.50;;;13.30;99.90;;;;;;5090019;28;20032;-61
2023/05/23 08:37:47;;;;;;;15.20;4.78;;;13.30;99.90;;;;;;5091636;28;20071;-60
2023/05/23 08:40:17;;;;;;;15.43;4.18;;;13.10;99.90;;;;;;5090937;28;20407;-60
2023/05/23 08:42:43;;;;;;;19.83;3.97;;;13.10;99.90;;;;;;5090366;28;20051;-61
2023/05/23 08:45:10;;;;;;;17.95;4.53;;;13.10;99.90;;;;;;5090814;28;20048;-61
2023/05/23 08:47:37;;;;;;;11.20;4.45;;;13.10;99.90;;;;;;5093881;28;20536;-60
2023/05/23 08:50:07;;;;;;;21.70;4.70;;;13.00;99.90;;;;;;5110497;28;20423;-61
2023/05/23 08:53:03;;;;;;;11.77;4.00;;;13.10;99.90;;;;;;5109317;28;20043;-61
2023/05/23 08:55:29;;;;;;;16.10;3.88;;;13.30;99.90;;;;;;5100683;28;20082;-60
2023/05/23 08:57:59;;;;;;;15.25;4.05;;;13.50;99.90;;;;;;5106655;28;20043;-60
2023/05/23 09:00:26;;;;;;;13.60;4.50;;;13.60;99.90;;;;;;5105542;28;20051;-61
2023/05/23 09:02:53;;;;;;;15.98;4.28;;;13.50;99.90;;;;;;5091319;28;20126;-61
2023/05/23 09:05:19;;;;;;;18.60;4.65;;;13.50;99.90;;;;;;5094494;28;20050;-61
2023/05/23 09:07:50;;;;;;;15.13;4.07;;;13.70;99.90;;;;;;5098248;28;20047;-60
2023/05/23 09:10:16;;;;;;;10.52;3.97;;;13.90;99.90;;;;;;5102519;28;20063;-60
2023/05/23 09:12:42;;;;;;;12.63;2.95;;;14.00;99.90;;;;;;5108894;28;20181;-61
2023/05/23 09:15:09;;;;;;;17.33;4.43;;;13.80;99.90;;;;;;5095195;28;20528;-61
2023/05/23 09:17:35;;;;;;;13.98;3.90;;;13.80;99.90;;;;;;5102287;28;20044;-60
2023/05/23 09:20:15;;;;;;;16.73;4.93;;;13.80;99.90;;;;;;5094579;28;20469;-59
2023/05/23 09:22:46;;;;;;;20.33;4.07;;;13.90;99.90;;;;;;5097493;28;20055;-59
2023/05/23 09:25:12;;;;;;;11.30;3.40;;;13.90;99.90;;;;;;5108344;28;20052;-59
2023/05/23 09:27:38;;;;;;;13.07;3.40;;;13.80;99.90;;;;;;5106150;28;20054;-59
2023/05/23 09:30:09;;;;;;;18.35;4.68;;;13.60;99.90;;;;;;5108583;28;20420;-59
2023/05/23 09:32:35;;;;;;;11.82;5.18;;;13.50;99.90;;;;;;5104751;28;20048;-60
2023/05/23 09:35:03;;;;;;;13.10;4.72;;;13.30;99.90;;;;;;5089993;28;20044;-59
2023/05/23 09:37:31;;;;;;;12.13;3.47;;;13.30;99.90;;;;;;5094482;28;20404;-60
2023/05/23 09:39:59;;;;;;;19.90;4.72;;;13.40;99.90;;;;;;5093257;28;20074;-59
2023/05/23 09:42:33;;;;;;;15.15;4.38;;;13.50;99.90;;;;;;5093978;28;20040;-60
2023/05/23 09:44:59;;;;;;;14.43;3.13;;;13.60;99.90;;;;;;5075944;28;20064;-59
2023/05/23 09:47:26;;;;;;;13.13;4.07;;;13.70;99.90;;;;;;5107023;28;20416;-59
2023/05/23 09:49:51;;;;;;;14.60;4.50;;;13.70;99.90;;;;;;5094450;28;20032;-59
2023/05/23 09:52:19;;;;;;;18.30;4.10;;;13.80;99.90;;;;;;5089327;28;20050;-59
2023/05/23 09:54:45;;;;;;;13.43;3.58;;;14.00;99.90;;;;;;5103035;28;20044;-59
2023/05/23 09:57:13;;;;;;;13.98;5.05;;;14.10;99.90;;;;;;5091165;28;20114;-59
2023/05/23 09:59:40;;;;;;;13.68;4.70;;;14.10;99.90;;;;;;5104226;28;20028;-59
2023/05/23 10:02:11;;;;;;;15.60;4.07;;;14.10;99.90;;;;;;5093110;28;20046;-59
2023/05/23 10:04:39;;;;;;;16.25;4.22;;;14.00;99.90;;;;;;5101092;28;20231;-60
2023/05/23 10:07:19;;;;;;;15.70;4.38;;;14.00;99.90;;;;;;5099326;28;20045;-59
2023/05/23 10:09:53;;;;;;;13.68;4.80;;;14.00;99.90;;;;;;5124839;27;20089;-59
2023/05/23 10:12:18;;;;;;;12.77;4.15;;;13.90;99.90;;;;;;5117202;27;20055;-59
2023/05/23 10:14:50;;;;;;;12.13;3.53;;;13.90;99.90;;;;;;5090932;28;20032;-60
2023/05/23 10:17:36;;;;;;;13.82;4.13;;;14.10;99.90;;;;;;5110327;28;20502;-60
2023/05/23 10:20:08;;;;;;;11.35;3.25;;;14.20;99.90;;;;;;5112171;28;20039;-59
2023/05/23 10:22:35;;;;;;;14.05;3.60;;;14.40;99.90;;;;;;5094308;28;20040;-60
2023/05/23 10:25:04;;;;;;;15.65;3.70;;;14.30;99.90;;;;;;5091224;28;20036;-60
2023/05/23 10:27:30;;;;;;;16.15;3.90;;;14.30;99.90;;;;;;5125800;27;20055;-59
2023/05/23 10:29:58;;;;;;;10.20;4.22;;;14.30;99.90;;;;;;5101508;28;20036;-60
2023/05/23 10:32:26;;;;;;;19.98;4.78;;;14.20;99.90;;;;;;5106293;28;20039;-59
2023/05/23 10:34:57;;;;;;;15.57;4.20;;;14.20;99.90;;;;;;5095523;28;20052;-59
2023/05/23 10:37:41;;;;;;;12.70;3.65;;;14.30;99.90;;;;;;5093936;28;20032;-59
2023/05/23 10:40:16;;;;;;;11.10;3.03;;;14.40;99.90;;;;;;5111428;28;20119;-59
2023/05/23 10:42:48;;;;;;;10.23;4.22;;;14.30;99.90;;;;;;5103245;28;20048;-59
2023/05/23 10:45:19;;;;;;;14.50;5.47;;;14.30;99.90;;;;;;5109031;28;20052;-60
2023/05/23 10:47:51;;;;;;;20.88;3.53;;;14.30;99.90;;;;;;5093332;28;20122;-59
2023/05/23 10:50:33;;;;;;;14.18;4.50;;;14.10;99.90;;;;;;5091992;28;20028;-59
2023/05/23 10:53:03;;;;;;;11.88;3.55;;;14.30;99.90;;;;;;5124435;28;20079;-59
2023/05/23 10:55:35;;;;;;;11.40;3.05;;;14.40;99.90;;;;;;5092000;28;20158;-59
2023/05/23 10:58:20;;;;;;;13.05;3.92;;;14.40;99.90;;;;;;5092140;28;20046;-59
2023/05/23 11:00:53;;;;;;;12.10;3.88;;;14.40;99.90;;;;;;5092386;28;20085;-59
2023/05/23 11:03:28;;;;;;;16.80;4.78;;;14.40;99.90;;;;;;5112317;28;20083;-59
2023/05/23 11:05:54;;;;;;;14.48;4.15;;;14.50;99.90;;;;;;5105291;28;20044;-59
2023/05/23 11:08:23;;;;;;;13.82;3.83;;;14.50;99.90;;;;;;5091700;28;20044;-60
2023/05/23 11:10:52;;;;;;;19.55;3.88;;;14.60;99.90;;;;;;5093249;28;20042;-61
2023/05/23 11:13:20;;;;;;;16.63;4.95;;;14.60;99.90;;;;;;5107399;28;20044;-61
2023/05/23 11:15:46;;;;;;;13.93;5.00;;;14.50;99.90;;;;;;5092031;28;20036;-61
2023/05/23 11:18:27;;;;;;;17.40;4.75;;;14.40;99.90;;;;;;5073852;28;20131;-61
2023/05/23 11:20:54;;;;;;;16.45;4.95;;;14.50;99.90;;;;;;5073497;28;20039;-61
2023/05/23 11:23:20;;;;;;;12.88;4.15;;;14.30;99.90;;;;;;5092757;28;20485;-61
2023/05/23 11:25:52;;;;;;;16.52;4.22;;;14.30;99.90;;;;;;5124657;27;20044;-61
2023/05/23 11:28:18;;;;;;;15.00;4.57;;;14.20;99.90;;;;;;5127118;27;20040;-61
2023/05/23 11:30:47;;;;;;;15.00;3.97;;;14.10;99.90;;;;;;5118788;27;20050;-61
2023/05/23 11:33:15;;;;;;;13.25;4.38;;;14.20;99.90;;;;;;5116086;28;20061;-61
2023/05/23 11:35:42;;;;;;;13.15;3.70;;;14.20;99.90;;;;;;5105052;28;20460;-61
2023/05/23 11:38:09;;;;;;;14.13;3.90;;;14.30;99.90;;;;;;5077936;28;20451;-61
2023/05/23 11:40:40;;;;;;;15.05;4.43;;;14.30;99.90;;;;;;5094388;28;20468;-61
2023/05/23 11:43:08;;;;;;;12.98;3.92;;;14.30;99.90;;;;;;5093769;28;20048;-61
2023/05/23 11:45:35;;;;;;;18.08;4.82;;;14.50;99.90;;;;;;5094095;28;20056;-61
2023/05/23 11:48:22;;;;;;;15.57;3.70;;;14.60;99.90;;;;;;5103552;28;20036;-61
2023/05/23 11:50:52;;;;;;;13.52;3.70;;;14.50;99.90;;;;;;5109483;28;20036;-61
2023/05/23 11:53:20;;;;;;;18.60;4.97;;;14.40;99.90;;;;;;5101528;28;20036;-61
2023/05/23 11:55:58;;;;;;;21.40;5.15;;;14.20;99.90;;;;;;5123972;27;20118;-61
2023/05/23 11:58:36;;;;;;;15.10;3.78;;;14.20;99.90;;;;;;5114967;28;20504;-61
2023/05/23 12:01:02;;;;;;;15.60;3.30;;;14.30;99.90;;;;;;5099375;28;20044;-61
2023/05/23 12:03:29;;;;;;;11.65;3.92;;;14.30;99.90;;;;;;5110636;27;20079;-61
2023/05/23 12:05:55;;;;;;;11.20;3.50;;;14.30;99.90;;;;;;5101592;27;20564;-61
2023/05/23 12:08:20;;;;;;;13.45;3.47;;;14.50;99.90;;;;;;5124658;27;20084;-61
2023/05/23 12:11:05;;;;;;;9.02;2.55;;;14.40;99.90;;;;;;5115012;27;20400;-61
2023/05/23 12:13:30;;;;;;;12.13;2.90;;;14.60;99.90;;;;;;5110444;28;20050;-60
2023/05/23 12:15:58;;;;;;;16.58;3.95;;;14.70;99.90;;;;;;5111777;28;20032;-61
2023/05/23 12:18:28;;;;;;;13.73;4.00;;;14.70;99.90;;;;;;5111438;28;20412;-60
2023/05/23 12:20:53;;;;;;;13.27;3.97;;;14.50;99.90;;;;;;5110823;28;20039;-61
2023/05/23 12:23:22;;;;;;;11.82;3.28;;;14.50;99.90;;;;;;5092528;28;20054;-61
2023/05/23 12:25:52;;;;;;;10.45;3.50;;;14.40;99.90;;;;;;5109385;28;20047;-61
2023/05/23 12:28:19;;;;;;;12.13;3.78;;;14.50;99.90;;;;;;5102433;28;20148;-60
2023/05/23 12:30:45;;;;;;;14.02;4.15;;;14.60;99.90;;;;;;5089757;28;20048;-61
2023/05/23 12:33:11;;;;;;;11.60;4.03;;;14.60;99.90;;;;;;5090502;28;20381;-61
2023/05/23 12:35:37;;;;;;;13.98;3.17;;;14.60;99.90;;;;;;5091870;28;20040;-61
2023/05/23 12:38:08;;;;;;;12.23;3.03;;;14.50;99.90;;;;;;5091136;28;20392;-60